createdAt,value
2018-09-23T00:01:58.960Z,3.30
2018-09-23T00:04:27.041Z,5.80
2018-09-23T00:06:55.133Z,5.90
2018-09-23T00:09:23.207Z,5.27
2018-09-23T00:11:51.287Z,5.60
2018-09-23T00:14:19.362Z,8.60
2018-09-23T00:16:47.449Z,5.00
2018-09-23T00:19:15.526Z,5.53
2018-09-23T00:21:43.610Z,5.50
2018-09-23T00:24:11.682Z,6.77
2018-09-23T00:26:39.758Z,4.33
2018-09-23T00:29:07.851Z,7.47
2018-09-23T00:31:35.921Z,5.57
2018-09-23T00:34:04.135Z,6.60
2018-09-23T00:36:32.202Z,7.00
2018-09-23T00:39:00.285Z,3.70
2018-09-23T00:41:28.367Z,5.80
2018-09-23T00:43:56.438Z,9.23
2018-09-23T00:46:24.507Z,3.50
2018-09-23T00:48:52.581Z,5.20
2018-09-23T00:51:20.652Z,4.30
2018-09-23T00:53:48.730Z,4.53
2018-09-23T00:56:16.794Z,4.53
2018-09-23T00:58:44.916Z,4.20
2018-09-23T01:01:12.964Z,6.93
2018-09-23T01:03:41.044Z,6.80
2018-09-23T01:06:09.124Z,5.67
2018-09-23T01:08:37.207Z,4.73
2018-09-23T01:11:05.446Z,3.13
2018-09-23T01:13:33.522Z,5.93
2018-09-23T01:16:01.615Z,4.17
2018-09-23T01:18:29.706Z,4.77
2018-09-23T01:20:57.806Z,3.50
2018-09-23T01:23:25.894Z,5.93
2018-09-23T01:25:53.973Z,3.20
2018-09-23T01:28:22.062Z,2.40
2018-09-23T01:30:50.178Z,4.27
2018-09-23T01:33:18.266Z,3.00
2018-09-23T01:35:46.338Z,4.97
2018-09-23T01:38:14.430Z,5.87
2018-09-23T01:40:42.526Z,6.70
2018-09-23T01:43:10.621Z,6.10
2018-09-23T01:45:38.697Z,3.50
2018-09-23T01:48:06.782Z,9.73
2018-09-23T01:50:34.866Z,3.80
2018-09-23T01:53:02.958Z,3.43
2018-09-23T01:55:31.050Z,3.30
2018-09-23T01:57:59.130Z,3.13
2018-09-23T02:00:27.209Z,3.73
2018-09-23T02:02:55.301Z,4.33
2018-09-23T02:05:23.390Z,2.63
2018-09-23T02:07:51.715Z,3.63
2018-09-23T02:10:19.798Z,5.70
2018-09-23T02:12:47.889Z,2.80
2018-09-23T02:15:16.034Z,3.60
2018-09-23T02:17:44.122Z,5.47
2018-09-23T02:20:12.483Z,5.80
2018-09-23T02:25:07.962Z,3.00
2018-09-23T02:27:36.059Z,5.10
2018-09-23T02:30:04.152Z,4.03
2018-09-23T02:32:32.226Z,4.93
2018-09-23T02:35:00.495Z,4.10
2018-09-23T02:37:28.574Z,4.30
2018-09-23T02:39:56.658Z,4.13
2018-09-23T02:42:24.770Z,3.67
2018-09-23T02:44:52.863Z,3.73
2018-09-23T02:47:20.966Z,4.03
2018-09-23T02:49:49.062Z,5.97
2018-09-23T02:52:17.146Z,4.60
2018-09-23T02:54:45.238Z,5.57
2018-09-23T02:57:13.318Z,7.53
2018-09-23T02:59:41.401Z,5.10
2018-09-23T03:02:09.489Z,5.10
2018-09-23T03:04:37.578Z,6.13
2018-09-23T03:07:05.692Z,12.50
2018-09-23T03:09:33.786Z,4.57
2018-09-23T03:12:01.929Z,5.00
2018-09-23T03:14:30.014Z,6.63
2018-09-23T03:16:58.106Z,4.93
2018-09-23T03:19:26.610Z,4.43
2018-09-23T03:21:54.698Z,6.50
2018-09-23T03:24:22.807Z,5.70
2018-09-23T03:26:50.891Z,3.83
2018-09-23T03:29:18.982Z,4.60
2018-09-23T03:31:47.059Z,4.20
2018-09-23T03:34:15.150Z,4.70
2018-09-23T03:36:43.239Z,4.50
2018-09-23T03:39:11.330Z,4.60
2018-09-23T03:41:39.420Z,4.23
2018-09-23T03:44:08.108Z,4.67
2018-09-23T03:46:36.186Z,4.57
2018-09-23T03:49:04.270Z,4.20
2018-09-23T03:51:32.351Z,4.73
2018-09-23T03:54:00.463Z,5.10
2018-09-23T03:56:28.569Z,4.73
2018-09-23T03:58:56.673Z,5.53
2018-09-23T04:01:24.766Z,5.27
2018-09-23T04:03:52.871Z,5.43
2018-09-23T04:06:20.960Z,6.70
2018-09-23T04:08:49.049Z,6.93
2018-09-23T04:11:17.123Z,5.70
2018-09-23T04:13:45.209Z,6.50
2018-09-23T04:16:13.298Z,6.63
2018-09-23T04:18:41.390Z,6.70
2018-09-23T04:21:09.475Z,6.10
2018-09-23T04:23:37.557Z,6.13
2018-09-23T04:26:05.942Z,8.00
2018-09-23T04:28:34.030Z,6.80
2018-09-23T04:31:02.094Z,5.13
2018-09-23T04:33:30.173Z,4.67
2018-09-23T04:35:58.319Z,9.40
2018-09-23T04:38:26.343Z,5.00
2018-09-23T04:40:54.421Z,5.00
2018-09-23T04:43:22.507Z,6.30
2018-09-23T04:45:50.594Z,5.30
2018-09-23T04:48:18.663Z,4.60
2018-09-23T04:50:46.743Z,5.17
2018-09-23T04:53:14.814Z,3.93
2018-09-23T04:55:42.908Z,5.70
2018-09-23T04:58:10.990Z,4.57
2018-09-23T05:00:39.117Z,7.03
2018-09-23T05:03:07.307Z,4.83
2018-09-23T05:05:35.590Z,4.20
2018-09-23T05:08:03.674Z,4.87
2018-09-23T05:10:31.758Z,5.53
2018-09-23T05:13:00.207Z,4.27
2018-09-23T05:15:28.294Z,4.83
2018-09-23T05:17:56.450Z,5.60
2018-09-23T05:20:24.550Z,4.13
2018-09-23T05:22:52.629Z,4.93
2018-09-23T05:25:20.723Z,4.23
2018-09-23T05:27:48.802Z,3.77
2018-09-23T05:30:16.891Z,6.10
2018-09-23T05:32:44.974Z,6.80
2018-09-23T05:35:13.072Z,5.10
2018-09-23T05:37:41.145Z,3.30
2018-09-23T05:40:09.233Z,3.90
2018-09-23T05:42:37.317Z,6.70
2018-09-23T05:45:06.419Z,7.20
2018-09-23T05:47:34.511Z,4.60
2018-09-23T05:50:02.611Z,3.30
2018-09-23T05:52:30.682Z,4.03
2018-09-23T05:54:58.777Z,6.93
2018-09-23T05:57:26.860Z,4.90
2018-09-23T05:59:54.957Z,4.27
2018-09-23T06:02:23.051Z,4.53
2018-09-23T06:04:51.138Z,3.77
2018-09-23T06:07:19.233Z,3.70
2018-09-23T06:09:47.323Z,9.93
2018-09-23T06:12:15.630Z,3.00
2018-09-23T06:14:44.592Z,3.97
2018-09-23T06:17:12.665Z,3.13
2018-09-23T06:19:40.762Z,3.70
2018-09-23T06:22:08.839Z,2.90
2018-09-23T06:24:37.006Z,2.90
2018-09-23T06:27:05.095Z,2.80
2018-09-23T06:29:33.178Z,2.67
2018-09-23T06:32:01.262Z,4.60
2018-09-23T06:34:29.386Z,6.70
2018-09-23T06:36:57.505Z,3.83
2018-09-23T06:39:25.558Z,3.33
2018-09-23T06:41:53.643Z,4.07
2018-09-23T06:44:21.731Z,3.83
2018-09-23T06:46:49.817Z,4.87
2018-09-23T06:49:17.894Z,4.40
2018-09-23T06:51:45.999Z,3.67
2018-09-23T06:54:14.079Z,2.87
2018-09-23T06:56:42.171Z,2.93
2018-09-23T06:59:10.254Z,3.63
2018-09-23T07:01:38.338Z,3.57
2018-09-23T07:04:06.922Z,4.67
2018-09-23T07:06:35.003Z,2.93
2018-09-23T07:09:03.206Z,2.83
2018-09-23T07:11:31.293Z,3.20
2018-09-23T07:13:59.366Z,4.90
2018-09-23T07:16:27.458Z,3.27
2018-09-23T07:18:55.536Z,7.13
2018-09-23T07:21:23.622Z,3.60
2018-09-23T07:23:51.802Z,2.60
2018-09-23T07:26:19.784Z,2.47
2018-09-23T07:28:47.947Z,2.53
2018-09-23T07:31:16.042Z,3.10
2018-09-23T07:33:44.122Z,2.80
2018-09-23T07:36:12.210Z,3.57
2018-09-23T07:38:40.299Z,3.20
2018-09-23T07:41:08.372Z,4.03
2018-09-23T07:43:36.442Z,2.20
2018-09-23T07:46:04.522Z,2.60
2018-09-23T07:48:32.601Z,4.60
2018-09-23T07:51:00.735Z,4.60
2018-09-23T07:53:28.822Z,2.17
2018-09-23T07:55:56.910Z,2.53
2018-09-23T07:58:24.990Z,2.80
2018-09-23T08:00:53.066Z,2.80
2018-09-23T08:03:21.182Z,2.10
2018-09-23T08:05:49.226Z,5.47
2018-09-23T08:08:17.298Z,2.97
2018-09-23T08:10:45.386Z,1.63
2018-09-23T08:13:13.514Z,2.57
2018-09-23T08:15:41.548Z,3.30
2018-09-23T08:18:09.632Z,1.70
2018-09-23T08:20:37.776Z,3.30
2018-09-23T08:23:05.843Z,2.33
2018-09-23T08:25:33.906Z,2.20
2018-09-23T08:28:01.966Z,2.13
2018-09-23T08:30:30.055Z,1.70
2018-09-23T08:32:58.176Z,2.77
2018-09-23T08:35:26.226Z,3.00
2018-09-23T08:37:54.340Z,3.90
2018-09-23T08:40:22.374Z,2.07
2018-09-23T08:42:50.465Z,3.20
2018-09-23T08:45:18.754Z,3.20
2018-09-23T08:47:46.961Z,3.10
2018-09-23T08:50:14.997Z,2.20
2018-09-23T08:52:43.089Z,2.50
2018-09-23T08:55:11.166Z,1.80
2018-09-23T08:57:39.332Z,4.03
2018-09-23T09:00:07.366Z,2.13
2018-09-23T09:02:35.463Z,2.30
2018-09-23T09:05:03.546Z,2.17
2018-09-23T09:07:31.630Z,2.63
2018-09-23T09:09:59.710Z,1.70
2018-09-23T09:12:27.804Z,2.80
2018-09-23T09:14:55.890Z,1.80
2018-09-23T09:17:23.978Z,1.63
2018-09-23T09:19:52.060Z,1.67
2018-09-23T09:22:20.187Z,2.00
2018-09-23T09:24:48.307Z,3.03
2018-09-23T09:27:16.614Z,3.83
2018-09-23T09:29:44.702Z,3.10
2018-09-23T09:32:12.791Z,2.40
2018-09-23T09:34:41.014Z,3.33
2018-09-23T09:37:09.098Z,2.80
2018-09-23T09:39:37.194Z,5.70
2018-09-23T09:42:05.300Z,1.90
2018-09-23T09:44:33.387Z,1.63
2018-09-23T09:47:01.482Z,4.77
2018-09-23T09:49:29.558Z,2.57
2018-09-23T09:51:57.659Z,1.40
2018-09-23T09:54:25.750Z,1.83
2018-09-23T09:56:53.831Z,1.67
2018-09-23T09:59:22.658Z,1.30
2018-09-23T10:01:51.148Z,2.30
2018-09-23T10:04:19.324Z,1.50
2018-09-23T10:06:47.362Z,2.37
2018-09-23T10:09:15.450Z,1.70
2018-09-23T10:11:43.571Z,1.67
2018-09-23T10:14:11.799Z,1.47
2018-09-23T10:16:39.874Z,2.77
2018-09-23T10:19:07.944Z,1.53
2018-09-23T10:21:36.015Z,1.90
2018-09-23T10:24:04.091Z,2.40
2018-09-23T10:26:32.179Z,1.50
2018-09-23T10:29:00.265Z,1.40
2018-09-23T10:31:28.477Z,1.77
2018-09-23T10:33:56.439Z,1.30
2018-09-23T10:36:24.516Z,1.27
2018-09-23T10:38:52.807Z,1.20
2018-09-23T10:41:20.897Z,1.47
2018-09-23T10:43:48.957Z,1.10
2018-09-23T10:46:17.043Z,2.60
2018-09-23T10:48:45.158Z,1.30
2018-09-23T10:51:13.239Z,1.20
2018-09-23T10:53:41.342Z,2.60
2018-09-23T10:56:09.490Z,1.40
2018-09-23T10:58:37.599Z,1.93
2018-09-23T11:01:05.702Z,1.10
2018-09-23T11:03:33.842Z,2.20
2018-09-23T11:06:01.867Z,1.20
2018-09-23T11:08:29.953Z,3.60
2018-09-23T11:10:58.024Z,1.30
2018-09-23T11:13:26.104Z,1.50
2018-09-23T11:15:54.181Z,3.10
2018-09-23T11:18:22.295Z,1.40
2018-09-23T11:20:50.391Z,1.40
2018-09-23T11:23:18.549Z,1.20
2018-09-23T11:25:46.615Z,1.30
2018-09-23T11:28:14.708Z,1.40
2018-09-23T11:30:42.829Z,1.47
2018-09-23T11:33:10.846Z,3.00
2018-09-23T11:35:38.918Z,1.60
2018-09-23T11:38:07.000Z,1.30
2018-09-23T11:40:35.072Z,1.50
2018-09-23T11:43:03.164Z,1.93
2018-09-23T11:45:31.230Z,1.30
2018-09-23T11:47:59.323Z,2.40
2018-09-23T11:50:27.389Z,1.17
2018-09-23T11:52:55.482Z,1.10
2018-09-23T11:55:23.558Z,1.97
2018-09-23T11:57:51.640Z,3.23
2018-09-23T12:00:19.720Z,1.50
2018-09-23T12:02:47.811Z,1.40
2018-09-23T12:05:15.894Z,1.37
2018-09-23T12:07:43.973Z,2.53
2018-09-23T12:10:12.070Z,1.20
2018-09-23T12:12:40.126Z,1.10
2018-09-23T12:15:08.221Z,6.33
2018-09-23T12:17:36.340Z,2.50
2018-09-23T12:20:04.466Z,1.63
2018-09-23T12:22:32.538Z,1.10
2018-09-23T12:25:00.666Z,1.43
2018-09-23T12:27:28.832Z,1.97
2018-09-23T12:29:56.909Z,1.63
2018-09-23T12:32:24.995Z,1.53
2018-09-23T12:34:53.071Z,1.30
2018-09-23T12:37:21.145Z,1.00
2018-09-23T12:39:49.246Z,1.40
2018-09-23T12:42:17.294Z,1.53
2018-09-23T12:44:45.364Z,1.73
2018-09-23T12:47:13.431Z,1.60
2018-09-23T12:49:41.510Z,1.20
2018-09-23T12:52:09.637Z,1.40
2018-09-23T12:54:37.715Z,1.20
2018-09-23T12:57:05.789Z,1.07
2018-09-23T12:59:33.862Z,1.63
2018-09-23T13:02:01.950Z,1.63
2018-09-23T13:04:30.030Z,2.60
2018-09-23T13:06:58.126Z,1.03
2018-09-23T13:09:26.211Z,1.30
2018-09-23T13:11:54.282Z,1.07
2018-09-23T13:14:22.582Z,1.30
2018-09-23T13:16:50.672Z,1.20
2018-09-23T13:19:18.882Z,1.37
2018-09-23T13:21:46.918Z,1.40
2018-09-23T13:24:14.994Z,2.25
2018-09-23T13:26:43.058Z,1.50
2018-09-23T13:29:11.144Z,1.10
2018-09-23T13:31:39.215Z,1.20
2018-09-23T13:34:07.462Z,1.10
2018-09-23T13:36:35.538Z,1.63
2018-09-23T13:39:04.913Z,1.10
2018-09-23T13:41:32.977Z,1.57
2018-09-23T13:44:01.061Z,2.20
2018-09-23T13:46:29.679Z,1.40
2018-09-23T13:48:57.723Z,1.30
2018-09-23T13:51:25.807Z,2.80
2018-09-23T13:53:53.898Z,0.83
2018-09-23T13:56:22.001Z,2.20
2018-09-23T13:58:50.115Z,1.33
2018-09-23T14:01:18.214Z,1.33
2018-09-23T14:03:46.323Z,1.10
2018-09-23T14:06:14.398Z,1.70
2018-09-23T14:08:42.482Z,1.63
2018-09-23T14:11:10.654Z,1.10
2018-09-23T14:13:38.741Z,2.67
2018-09-23T14:16:06.818Z,3.17
2018-09-23T14:18:34.902Z,1.93
2018-09-23T14:21:02.999Z,2.80
2018-09-23T14:23:31.326Z,2.23
2018-09-23T14:25:59.409Z,1.00
2018-09-23T14:28:27.478Z,1.30
2018-09-23T14:30:55.566Z,0.90
2018-09-23T14:33:23.639Z,2.20
2018-09-23T14:35:51.718Z,3.40
2018-09-23T14:38:19.954Z,2.90
2018-09-23T14:40:48.049Z,1.33
2018-09-23T14:43:16.124Z,3.85
2018-09-23T14:45:44.207Z,5.20
2018-09-23T14:48:12.274Z,1.10
2018-09-23T14:50:40.371Z,2.10
2018-09-23T14:53:08.822Z,1.40
2018-09-23T14:55:37.170Z,1.10
2018-09-23T14:58:05.630Z,3.03
2018-09-23T15:00:33.894Z,2.03
2018-09-23T15:03:01.899Z,2.13
2018-09-23T15:05:29.982Z,2.50
2018-09-23T15:07:58.050Z,2.87
2018-09-23T15:10:26.131Z,4.30
2018-09-23T15:12:54.203Z,5.90
2018-09-23T15:15:22.294Z,1.90
2018-09-23T15:17:50.372Z,2.40
2018-09-23T15:20:18.462Z,2.60
2018-09-23T15:22:46.542Z,3.27
2018-09-23T15:25:14.650Z,2.60
2018-09-23T15:27:42.752Z,1.73
2018-09-23T15:30:10.823Z,1.70
2018-09-23T15:32:38.909Z,1.30
2018-09-23T15:35:06.990Z,1.97
2018-09-23T15:37:35.085Z,2.13
2018-09-23T15:40:03.162Z,1.10
2018-09-23T15:42:31.260Z,2.13
2018-09-23T15:44:59.331Z,1.43
2018-09-23T15:47:27.430Z,1.67
2018-09-23T15:49:55.658Z,1.80
2018-09-23T15:52:23.745Z,1.00
2018-09-23T15:54:51.823Z,0.80
2018-09-23T15:57:19.906Z,0.87
2018-09-23T15:59:47.976Z,0.87
2018-09-23T16:02:16.066Z,0.97
2018-09-23T16:04:44.146Z,1.13
2018-09-23T16:07:12.235Z,1.10
2018-09-23T16:09:40.323Z,0.80
2018-09-23T16:12:08.401Z,1.77
2018-09-23T16:14:36.483Z,0.70
2018-09-23T16:17:04.591Z,1.00
2018-09-23T16:19:32.675Z,0.80
2018-09-23T16:22:00.759Z,1.50
2018-09-23T16:24:28.894Z,0.80
2018-09-23T16:26:56.981Z,0.80
2018-09-23T16:29:25.270Z,1.83
2018-09-23T16:31:53.381Z,0.97
2018-09-23T16:34:21.430Z,0.97
2018-09-23T16:36:49.536Z,2.80
2018-09-23T16:39:17.620Z,0.73
2018-09-23T16:41:45.690Z,0.70
2018-09-23T16:44:13.778Z,1.20
2018-09-23T16:46:41.858Z,0.80
2018-09-23T16:49:09.966Z,0.80
2018-09-23T16:51:38.044Z,0.70
2018-09-23T16:54:06.148Z,1.27
2018-09-23T16:56:34.222Z,1.00
2018-09-23T16:59:02.314Z,0.93
2018-09-23T17:01:30.584Z,0.90
2018-09-23T17:03:58.716Z,0.90
2018-09-23T17:06:26.786Z,1.17
2018-09-23T17:08:54.891Z,1.10
2018-09-23T17:11:22.963Z,2.10
2018-09-23T17:13:51.045Z,1.20
2018-09-23T17:16:19.118Z,0.90
2018-09-23T17:18:47.202Z,1.40
2018-09-23T17:21:15.280Z,1.10
2018-09-23T17:23:43.357Z,0.90
2018-09-23T17:26:11.425Z,1.10
2018-09-23T17:28:39.535Z,1.30
2018-09-23T17:31:07.570Z,0.90
2018-09-23T17:33:35.654Z,1.40
2018-09-23T17:36:03.742Z,1.30
2018-09-23T17:38:31.832Z,1.17
2018-09-23T17:40:59.980Z,1.23
2018-09-23T17:43:28.006Z,1.20
2018-09-23T17:45:56.082Z,1.20
2018-09-23T17:48:24.198Z,1.10
2018-09-23T17:50:52.281Z,1.80
2018-09-23T17:53:20.371Z,1.23
2018-09-23T17:55:48.451Z,1.00
2018-09-23T17:58:16.530Z,0.97
2018-09-23T18:00:44.610Z,0.90
2018-09-23T18:03:13.906Z,1.00
2018-09-23T18:05:42.190Z,1.40
2018-09-23T18:08:10.262Z,4.13
2018-09-23T18:10:38.346Z,1.07
2018-09-23T18:13:06.562Z,1.30
2018-09-23T18:15:34.655Z,1.13
2018-09-23T18:18:02.725Z,1.40
2018-09-23T18:20:30.814Z,1.33
2018-09-23T18:22:58.889Z,1.20
2018-09-23T18:25:26.966Z,1.10
2018-09-23T18:27:55.059Z,1.30
2018-09-23T18:30:23.511Z,1.20
2018-09-23T18:32:51.773Z,1.20
2018-09-23T18:35:19.854Z,1.40
2018-09-23T18:37:47.945Z,1.37
2018-09-23T18:40:16.021Z,1.40
2018-09-23T18:42:44.091Z,1.50
2018-09-23T18:45:12.162Z,1.67
2018-09-23T18:47:40.245Z,1.13
2018-09-23T18:50:08.334Z,1.53
2018-09-23T18:52:36.401Z,1.00
2018-09-23T18:55:10.311Z,1.20
2018-09-23T18:57:38.314Z,1.87
2018-09-23T19:00:06.506Z,1.20
2018-09-23T19:02:34.666Z,0.93
2018-09-23T19:05:02.750Z,1.50
2018-09-23T19:07:30.831Z,1.50
2018-09-23T19:09:58.970Z,1.60
2018-09-23T19:12:27.053Z,1.57
2018-09-23T19:14:55.150Z,1.43
2018-09-23T19:17:23.225Z,1.90
2018-09-23T19:19:56.654Z,1.87
2018-09-23T19:23:33.487Z,1.70
2018-09-23T19:26:01.570Z,1.80
2018-09-23T19:28:29.642Z,1.30
2018-09-23T19:30:57.736Z,2.90
2018-09-23T19:33:25.823Z,2.23
2018-09-23T19:35:53.908Z,1.50
2018-09-23T19:38:21.990Z,1.90
2018-09-23T19:40:50.070Z,1.70
2018-09-23T19:43:18.142Z,1.50
2018-09-23T19:45:46.234Z,1.77
2018-09-23T19:48:14.530Z,1.40
2018-09-23T19:50:42.613Z,1.23
2018-09-23T19:53:10.686Z,1.70
2018-09-23T19:55:38.765Z,1.50
2018-09-23T19:58:06.846Z,1.67
2018-09-23T20:00:34.922Z,1.50
2018-09-23T20:03:03.008Z,1.80
2018-09-23T20:05:31.086Z,3.07
2018-09-23T20:07:59.162Z,1.77
2018-09-23T20:10:27.246Z,1.40
2018-09-23T20:12:55.325Z,1.50
2018-09-23T20:15:23.452Z,1.80
2018-09-23T20:17:51.522Z,1.50
2018-09-23T20:20:19.636Z,1.47
2018-09-23T20:22:47.702Z,1.70
2018-09-23T20:25:16.066Z,1.60
2018-09-23T20:27:44.162Z,1.40
2018-09-23T20:30:12.268Z,1.57
2018-09-23T20:32:40.343Z,1.40
2018-09-23T20:35:08.558Z,1.37
2018-09-23T20:37:37.851Z,1.30
2018-09-23T20:40:06.168Z,1.40
2018-09-23T20:42:34.246Z,2.30
2018-09-23T20:45:02.785Z,1.30
2018-09-23T20:47:30.869Z,1.40
2018-09-23T20:49:58.962Z,1.20
2018-09-23T20:52:27.035Z,1.20
2018-09-23T20:54:55.138Z,1.20
2018-09-23T20:57:23.213Z,1.40
2018-09-23T20:59:51.311Z,1.50
2018-09-23T21:02:19.470Z,1.30
2018-09-23T21:04:47.493Z,1.40
2018-09-23T21:07:15.681Z,1.27
2018-09-23T21:09:43.766Z,1.93
2018-09-23T21:12:11.854Z,1.50
2018-09-23T21:14:39.941Z,1.30
2018-09-23T21:17:08.043Z,1.33
2018-09-23T21:19:36.170Z,1.30
2018-09-23T21:22:04.258Z,1.30
2018-09-23T21:24:32.378Z,1.30
2018-09-23T21:27:00.477Z,1.40
2018-09-23T21:29:28.547Z,3.00
2018-09-23T21:31:56.655Z,1.47
2018-09-23T21:34:24.732Z,1.40
2018-09-23T21:36:52.826Z,1.40
2018-09-23T21:39:20.902Z,1.60
2018-09-23T21:41:48.988Z,1.97
2018-09-23T21:44:17.069Z,1.50
2018-09-23T21:46:45.149Z,1.95
2018-09-23T21:49:13.264Z,2.00
2018-09-23T21:51:41.346Z,2.57
2018-09-23T21:54:09.426Z,1.67
2018-09-23T21:56:37.514Z,2.87
2018-09-23T21:59:05.593Z,1.80
2018-09-23T22:01:33.673Z,1.90
2018-09-23T22:04:02.011Z,1.50
2018-09-23T22:06:30.094Z,1.40
2018-09-23T22:08:58.185Z,1.70
2018-09-23T22:11:26.278Z,2.03
2018-09-23T22:13:54.356Z,1.77
2018-09-23T22:16:22.455Z,1.50
2018-09-23T22:18:50.534Z,1.30
2018-09-23T22:21:18.618Z,1.53
2018-09-23T22:23:46.705Z,1.70
2018-09-23T22:26:14.790Z,1.60
2018-09-23T22:28:42.886Z,1.40
2018-09-23T22:31:11.122Z,1.57
2018-09-23T22:33:39.218Z,1.50
2018-09-23T22:36:07.310Z,1.50
2018-09-23T22:38:35.574Z,1.60
2018-09-23T22:41:03.672Z,1.77
2018-09-23T22:43:31.749Z,1.80
2018-09-23T22:45:59.833Z,1.50
2018-09-23T22:48:27.923Z,1.43
2018-09-23T22:50:56.018Z,2.00
2018-09-23T22:53:24.113Z,2.10
2018-09-23T22:55:52.181Z,1.60
2018-09-23T22:58:20.277Z,1.90
2018-09-23T23:00:48.352Z,1.83
2018-09-23T23:03:16.438Z,1.70
2018-09-23T23:05:44.515Z,1.70
2018-09-23T23:08:12.593Z,1.60
2018-09-23T23:10:40.691Z,1.80
2018-09-23T23:13:08.782Z,1.73
2018-09-23T23:15:36.870Z,2.27
2018-09-23T23:18:04.970Z,2.20
2018-09-23T23:20:33.041Z,3.77
2018-09-23T23:23:01.130Z,2.05
2018-09-23T23:25:29.210Z,2.10
2018-09-23T23:27:57.310Z,2.30
2018-09-23T23:30:25.400Z,2.80
2018-09-23T23:32:53.496Z,2.03
2018-09-23T23:35:21.575Z,2.10
2018-09-23T23:37:49.666Z,2.40
2018-09-23T23:40:17.762Z,2.17
2018-09-23T23:42:45.850Z,2.70
2018-09-23T23:45:13.939Z,2.17
2018-09-23T23:47:42.250Z,2.40
2018-09-23T23:50:10.329Z,2.57
2018-09-23T23:52:38.442Z,2.40
2018-09-23T23:55:06.558Z,3.00
2018-09-23T23:57:34.650Z,2.50
